createdAt,value
2023-05-02T00:02:54.365Z,6.60
2023-05-02T00:07:58.217Z,7.30
2023-05-02T00:13:01.669Z,6.90
2023-05-02T00:18:04.936Z,6.50
2023-05-02T00:23:08.294Z,7.00
2023-05-02T00:28:11.745Z,7.30
2023-05-02T00:33:16.121Z,6.90
2023-05-02T00:38:19.540Z,7.30
2023-05-02T00:43:22.953Z,7.30
2023-05-02T00:48:26.769Z,6.70
2023-05-02T00:53:30.231Z,6.70
2023-05-02T00:58:34.662Z,7.00
2023-05-02T01:03:53.592Z,7.10
2023-05-02T01:09:10.953Z,6.70
2023-05-02T01:14:16.143Z,6.20
2023-05-02T01:19:27.927Z,6.20
2023-05-02T01:24:39.344Z,6.30
2023-05-02T01:29:44.698Z,6.10
2023-05-02T01:34:50.069Z,6.30
2023-05-02T01:39:57.386Z,6.80
2023-05-02T01:45:04.102Z,6.30
2023-05-02T01:50:11.566Z,6.50
2023-05-02T01:55:20.777Z,6.50
2023-05-02T02:00:26.463Z,6.50
2023-05-02T02:05:32.559Z,6.00
2023-05-02T02:10:41.165Z,6.10
2023-05-02T02:15:51.169Z,6.80
2023-05-02T02:20:55.693Z,6.30
2023-05-02T02:26:02.887Z,6.20
2023-05-02T02:31:06.381Z,6.10
2023-05-02T02:36:24.602Z,6.10
2023-05-02T02:41:46.872Z,5.90
2023-05-02T02:47:09.204Z,6.10
2023-05-02T02:52:26.465Z,6.10
2023-05-02T02:58:00.861Z,6.30
2023-05-02T03:03:07.396Z,6.00
2023-05-02T03:08:10.878Z,5.90
2023-05-02T03:13:14.614Z,6.30
2023-05-02T03:18:19.379Z,5.60
2023-05-02T03:23:43.252Z,5.90
2023-05-02T03:28:47.310Z,5.90
2023-05-02T03:33:54.569Z,6.70
2023-05-02T03:38:58.575Z,6.10
2023-05-02T03:44:02.124Z,6.40
2023-05-02T03:49:05.911Z,6.30
2023-05-02T03:54:10.142Z,6.20
2023-05-02T03:59:15.246Z,6.60
2023-05-02T04:04:19.959Z,6.30
2023-05-02T04:09:26.530Z,6.00
2023-05-02T04:14:37.824Z,6.40
2023-05-02T04:19:41.831Z,6.00
2023-05-02T04:24:45.746Z,6.30
2023-05-02T04:29:50.757Z,6.20
2023-05-02T04:34:55.971Z,6.10
2023-05-02T04:40:00.422Z,6.20
2023-05-02T04:45:08.413Z,6.00
2023-05-02T04:50:14.654Z,6.00
2023-05-02T04:55:17.943Z,6.20
2023-05-02T05:00:22.039Z,6.50
2023-05-02T05:05:25.789Z,6.70
2023-05-02T05:10:30.139Z,6.20
2023-05-02T05:15:33.616Z,6.40
2023-05-02T05:20:38.921Z,6.10
2023-05-02T05:25:44.236Z,6.20
2023-05-02T05:30:50.843Z,6.00
2023-05-02T05:35:57.728Z,5.40
2023-05-02T05:41:01.941Z,5.70
2023-05-02T05:46:06.225Z,6.30
2023-05-02T05:51:11.217Z,5.60
2023-05-02T05:56:14.648Z,5.10
2023-05-02T06:01:23.875Z,5.60
2023-05-02T06:06:28.210Z,5.40
2023-05-02T06:11:31.654Z,5.40
2023-05-02T06:16:35.749Z,5.10
2023-05-02T06:21:39.431Z,5.10
2023-05-02T06:26:43.388Z,5.50
2023-05-02T06:31:46.698Z,5.10
2023-05-02T06:36:55.656Z,5.20
2023-05-02T06:41:59.130Z,4.60
2023-05-02T06:47:05.435Z,4.80
2023-05-02T06:52:08.738Z,4.40
2023-05-02T06:57:12.178Z,4.10
2023-05-02T07:02:15.454Z,4.30
2023-05-02T07:07:18.997Z,4.10
2023-05-02T07:12:22.562Z,3.70
2023-05-02T07:17:25.951Z,3.70
2023-05-02T07:22:29.223Z,3.20
2023-05-02T07:27:32.902Z,2.80
2023-05-02T07:32:36.822Z,3.10
2023-05-02T07:37:40.253Z,3.50
2023-05-02T07:42:44.382Z,3.20
2023-05-02T07:47:47.803Z,3.40
2023-05-02T07:52:51.473Z,3.40
2023-05-02T07:57:54.686Z,3.50
2023-05-02T08:02:57.994Z,3.40
2023-05-02T08:08:02.107Z,3.60
2023-05-02T08:13:05.236Z,3.70
2023-05-02T08:18:08.602Z,3.80
2023-05-02T08:23:11.999Z,4.00
2023-05-02T08:28:17.677Z,4.20
2023-05-02T08:33:21.203Z,4.10
2023-05-02T08:38:24.353Z,4.30
2023-05-02T08:43:32.877Z,4.00
2023-05-02T08:48:49.588Z,4.00
2023-05-02T08:53:54.634Z,4.20
2023-05-02T08:58:57.774Z,4.40
2023-05-02T09:04:01.056Z,4.70
2023-05-02T09:09:04.327Z,4.00
2023-05-02T09:14:17.646Z,4.40
2023-05-02T09:19:26.238Z,4.70
2023-05-02T09:24:29.971Z,4.80
2023-05-02T09:29:38.120Z,4.50
2023-05-02T09:35:05.049Z,4.60
2023-05-02T09:40:12.001Z,5.00
2023-05-02T09:45:26.203Z,5.20
2023-05-02T09:50:39.265Z,5.50
2023-05-02T09:55:42.623Z,5.60
2023-05-02T10:00:45.954Z,5.30
2023-05-02T10:05:49.894Z,5.60
2023-05-02T10:11:00.968Z,5.50
2023-05-02T10:16:07.059Z,6.20
2023-05-02T10:21:17.858Z,5.70
2023-05-02T10:26:23.604Z,6.10
2023-05-02T10:31:31.537Z,5.90
2023-05-02T10:36:34.789Z,6.00
2023-05-02T10:41:40.221Z,6.30
2023-05-02T10:46:43.722Z,5.70
2023-05-02T10:51:47.287Z,6.40
2023-05-02T10:57:05.734Z,6.60
2023-05-02T11:02:23.681Z,7.30
2023-05-02T11:07:29.248Z,7.50
2023-05-02T11:12:56.760Z,8.10
2023-05-02T11:18:01.046Z,7.70
2023-05-02T11:23:22.296Z,8.20
2023-05-02T11:28:38.432Z,8.90
2023-05-02T11:33:41.703Z,7.90
2023-05-02T11:38:52.265Z,7.30
2023-05-02T11:44:03.884Z,7.00
2023-05-02T11:49:14.888Z,6.90
2023-05-02T11:54:22.902Z,7.00
2023-05-02T11:59:26.697Z,7.00
2023-05-02T12:04:29.975Z,8.00
2023-05-02T12:09:33.253Z,9.00
2023-05-02T12:14:38.210Z,10.00
2023-05-02T12:19:41.567Z,9.50
2023-05-02T12:24:44.879Z,8.70
2023-05-02T12:29:48.948Z,9.40
2023-05-02T12:34:52.113Z,8.60
2023-05-02T12:39:56.978Z,8.70
2023-05-02T12:45:00.757Z,7.60
2023-05-02T12:50:04.461Z,7.90
2023-05-02T12:55:18.685Z,7.80
2023-05-02T13:00:22.076Z,7.10
2023-05-02T13:05:25.807Z,7.70
2023-05-02T13:10:29.398Z,7.40
2023-05-02T13:15:32.713Z,8.50
2023-05-02T13:20:35.892Z,7.20
2023-05-02T13:25:39.186Z,6.80
2023-05-02T13:30:42.613Z,7.30
2023-05-02T13:35:46.560Z,7.40
2023-05-02T13:40:50.171Z,6.60
2023-05-02T13:45:53.646Z,6.30
2023-05-02T13:50:56.873Z,6.70
2023-05-02T13:56:00.596Z,6.40
2023-05-02T14:01:04.628Z,5.60
2023-05-02T14:06:07.978Z,5.60
2023-05-02T14:11:11.529Z,5.90
2023-05-02T14:16:14.764Z,5.70
2023-05-02T14:21:18.100Z,5.10
2023-05-02T14:26:21.669Z,5.30
2023-05-02T14:31:26.431Z,5.60
2023-05-02T14:36:29.690Z,5.80
2023-05-02T14:41:32.924Z,5.40
2023-05-02T14:46:36.210Z,5.20
2023-05-02T14:51:40.100Z,6.60
2023-05-02T14:56:44.105Z,5.40
2023-05-02T15:01:47.493Z,5.10
2023-05-02T15:06:54.326Z,5.20
2023-05-02T15:11:58.266Z,4.80
2023-05-02T15:17:01.816Z,4.60
2023-05-02T15:22:05.401Z,5.20
2023-05-02T15:27:09.712Z,5.30
2023-05-02T15:32:13.277Z,5.30
2023-05-02T15:37:16.632Z,4.70
2023-05-02T15:42:19.786Z,5.00
2023-05-02T15:47:23.100Z,5.50
2023-05-02T15:52:26.866Z,5.60
2023-05-02T15:57:30.144Z,5.50
2023-05-02T16:02:34.266Z,5.20
2023-05-02T16:07:38.832Z,5.70
2023-05-02T16:12:42.024Z,5.50
2023-05-02T16:17:45.417Z,5.60
2023-05-02T16:22:48.807Z,5.50
2023-05-02T16:27:52.189Z,5.30
2023-05-02T16:32:55.588Z,5.80
2023-05-02T16:37:58.935Z,5.40
2023-05-02T16:43:02.311Z,5.50
2023-05-02T16:48:05.859Z,5.20
2023-05-02T16:53:09.117Z,5.30
2023-05-02T16:58:12.363Z,5.50
2023-05-02T17:03:15.801Z,5.60
2023-05-02T17:08:19.227Z,5.90
2023-05-02T17:13:22.532Z,6.10
2023-05-02T17:18:26.606Z,5.60
2023-05-02T17:23:30.657Z,5.70
2023-05-02T17:28:33.881Z,6.80
2023-05-02T17:33:37.478Z,6.10
2023-05-02T17:38:42.016Z,5.70
2023-05-02T17:43:45.184Z,5.50
2023-05-02T17:48:49.187Z,5.00
2023-05-02T17:53:52.590Z,5.60
2023-05-02T17:58:56.383Z,5.70
2023-05-02T18:03:59.872Z,6.10
2023-05-02T18:09:03.473Z,5.90
2023-05-02T18:14:13.736Z,6.20
2023-05-02T18:19:17.414Z,6.90
2023-05-02T18:24:20.797Z,8.90
2023-05-02T18:29:24.362Z,7.00
2023-05-02T18:34:37.790Z,7.20
2023-05-02T18:39:41.988Z,8.30
2023-05-02T18:44:45.625Z,9.20
2023-05-02T18:49:50.364Z,8.60
2023-05-02T18:54:53.838Z,8.40
2023-05-02T18:59:57.109Z,8.20
2023-05-02T19:05:00.845Z,7.90
2023-05-02T19:10:04.997Z,7.10
2023-05-02T19:15:08.728Z,6.30
2023-05-02T19:20:12.817Z,6.90
2023-05-02T19:25:21.680Z,7.00
2023-05-02T19:30:25.359Z,7.50
2023-05-02T19:35:28.753Z,7.00
2023-05-02T19:40:32.011Z,7.00
2023-05-02T19:45:35.454Z,7.40
2023-05-02T19:50:38.983Z,7.10
2023-05-02T19:55:42.478Z,8.10
2023-05-02T20:00:49.373Z,8.00
2023-05-02T20:05:52.890Z,7.90
2023-05-02T20:10:56.544Z,8.10
2023-05-02T20:16:00.449Z,8.20
2023-05-02T20:21:03.997Z,9.10
2023-05-02T20:26:07.230Z,8.60
2023-05-02T20:31:10.414Z,8.00
2023-05-02T20:36:15.194Z,7.80
2023-05-02T20:41:18.792Z,7.80
2023-05-02T20:46:22.633Z,7.20
2023-05-02T20:51:29.781Z,7.30
2023-05-02T20:56:33.365Z,6.60
2023-05-02T21:01:36.693Z,6.60
2023-05-02T21:06:40.045Z,6.10
2023-05-02T21:11:43.729Z,6.00
2023-05-02T21:16:46.925Z,5.90
2023-05-02T21:21:50.462Z,6.10
2023-05-02T21:26:53.689Z,6.30
2023-05-02T21:31:56.912Z,6.60
2023-05-02T21:37:00.750Z,6.50
2023-05-02T21:42:05.015Z,6.10
2023-05-02T21:47:08.472Z,6.30
2023-05-02T21:52:11.814Z,6.20
2023-05-02T21:57:15.067Z,6.70
2023-05-02T22:02:18.495Z,6.10
2023-05-02T22:07:21.970Z,5.70
2023-05-02T22:12:26.899Z,5.10
2023-05-02T22:17:31.858Z,4.70
2023-05-02T22:22:35.557Z,4.60
2023-05-02T22:27:47.986Z,4.50
2023-05-02T22:37:55.561Z,4.60
2023-05-02T22:43:19.447Z,4.50
2023-05-02T22:48:22.767Z,4.00
2023-05-02T22:53:26.210Z,3.80
2023-05-02T22:58:29.618Z,4.00
2023-05-02T23:03:33.300Z,3.50
2023-05-02T23:08:36.836Z,3.80
2023-05-02T23:13:40.232Z,3.80
2023-05-02T23:18:43.753Z,3.90
2023-05-02T23:23:47.231Z,4.40
2023-05-02T23:28:53.294Z,3.80
2023-05-02T23:33:56.681Z,3.60
2023-05-02T23:39:02.553Z,4.10
2023-05-02T23:44:26.578Z,4.20
2023-05-02T23:49:29.808Z,4.20
2023-05-02T23:54:35.022Z,4.10
2023-05-02T23:59:38.541Z,4.30
